ENQC weather

Troll C Platform
Norway

Public forecast

Using degrees Celsius for public forecast. Weather courtesy of forecast.io.

METAR (pilot weather report)

Retrieved 2019/09/22 12:20 UTC (40 minutes ago):

ENQC 221220Z AUTO 13008KT 9999NDV NCD 16/12 Q1012 W///S3

TAF (pilot weather forecast)

Closest forecast is Oseberg A Platform, 33.0 nm (61.2 km) SW. Retrieved 2019/09/22 12:57 UTC (3 minutes ago):

TAF ENOA 221100Z 2212/2312 15015KT 0100 FG VV001 PROB30 TEMPO 2212/2215 2000 BCFG BKN003 BECMG 2215/2217 CAVOK